Time;durP1;ratioP1;P1;durP2;ratioP2;P2;SDS_P1;SDS_P2;PMS_P1;PMS_P2;Temp;Humidity;BMP_temperature;BMP_pressure;BME280_temperature;BME280_humidity;BME280_pressure;Samples;Min_cycle;Max_cycle;Signal;HPM_P1;HPM_P2
2024/02/01 00:01:57;;;;;;;9.83;6.30;;;3.80;94.80;;;;;;5080232;28;20196;-79
2024/02/01 00:04:23;;;;;;;11.80;7.07;;;3.80;94.80;;;;;;5087665;28;20224;-76
2024/02/01 00:06:51;;;;;;;10.40;7.10;;;3.70;94.80;;;;;;5084351;28;20232;-77
2024/02/01 00:09:18;;;;;;;9.53;6.20;;;3.60;94.80;;;;;;5088307;28;20208;-76
2024/02/01 00:12:03;;;;;;;8.90;6.10;;;3.60;94.90;;;;;;5084776;28;20681;-77
2024/02/01 00:14:29;;;;;;;9.67;6.03;;;3.70;94.80;;;;;;5087963;28;20730;-77
2024/02/01 00:16:56;;;;;;;8.73;6.10;;;3.70;94.80;;;;;;5082153;28;20208;-77
2024/02/01 00:19:23;;;;;;;7.50;5.60;;;3.70;94.80;;;;;;5083400;28;20196;-76
2024/02/01 00:21:50;;;;;;;11.17;6.30;;;3.60;94.80;;;;;;5087073;28;20212;-77
2024/02/01 00:24:17;;;;;;;9.90;6.57;;;3.50;94.80;;;;;;5086104;28;20290;-77
2024/02/01 00:26:44;;;;;;;9.33;6.03;;;3.40;94.70;;;;;;5084956;28;20211;-77
2024/02/01 00:29:12;;;;;;;8.90;6.20;;;3.30;95.10;;;;;;5088339;28;20295;-77
2024/02/01 00:31:39;;;;;;;10.37;6.10;;;3.30;95.40;;;;;;5086543;28;20232;-77
2024/02/01 00:34:05;;;;;;;8.60;6.07;;;3.30;95.80;;;;;;5090376;28;20204;-77
2024/02/01 00:36:32;;;;;;;9.43;6.20;;;3.30;95.70;;;;;;5089374;28;20188;-77
2024/02/01 00:38:59;;;;;;;9.60;5.87;;;3.40;95.60;;;;;;5087144;28;20207;-77
2024/02/01 00:41:25;;;;;;;7.10;5.70;;;3.40;95.40;;;;;;5089464;28;21555;-77
2024/02/01 00:43:53;;;;;;;9.97;5.60;;;3.50;95.40;;;;;;5083368;28;20217;-77
2024/02/01 00:46:21;;;;;;;8.37;5.93;;;3.50;95.30;;;;;;5083790;28;20705;-76
2024/02/01 00:48:51;;;;;;;11.47;6.20;;;3.50;95.10;;;;;;5086393;28;20192;-76
2024/02/01 00:51:18;;;;;;;15.17;5.70;;;3.50;95.00;;;;;;5082975;28;20201;-77
2024/02/01 00:53:45;;;;;;;8.83;5.67;;;3.60;95.20;;;;;;5083921;28;20201;-78
2024/02/01 00:56:11;;;;;;;10.27;6.47;;;3.50;95.30;;;;;;5088447;28;20224;-80
2024/02/01 00:58:38;;;;;;;7.57;5.83;;;3.50;95.70;;;;;;5090145;28;20215;-79
2024/02/01 01:01:05;;;;;;;7.70;6.00;;;3.60;95.90;;;;;;5085753;28;20196;-77
2024/02/01 01:03:33;;;;;;;8.10;5.90;;;3.60;96.00;;;;;;5084281;28;21459;-78
2024/02/01 01:06:00;;;;;;;8.70;5.70;;;3.70;96.50;;;;;;5085698;28;20200;-78
2024/02/01 01:08:27;;;;;;;7.83;5.77;;;3.70;96.00;;;;;;5067816;28;20262;-78
2024/02/01 01:10:53;;;;;;;9.73;6.47;;;3.80;95.90;;;;;;5087724;28;20216;-78
2024/02/01 01:13:20;;;;;;;7.87;6.03;;;3.80;95.90;;;;;;5091655;28;20226;-78
2024/02/01 01:15:47;;;;;;;10.83;6.63;;;3.90;95.90;;;;;;5090140;28;20211;-78
2024/02/01 01:18:14;;;;;;;11.87;7.47;;;3.90;96.20;;;;;;5082344;28;20294;-78
2024/02/01 01:20:42;;;;;;;11.83;7.60;;;3.90;96.40;;;;;;5089425;28;20203;-80
2024/02/01 01:23:08;;;;;;;12.87;7.60;;;4.00;97.00;;;;;;5091559;28;20203;-78
2024/02/01 01:25:35;;;;;;;13.07;7.73;;;4.00;97.50;;;;;;5089410;28;20221;-78
2024/02/01 01:28:02;;;;;;;12.70;8.10;;;4.20;98.00;;;;;;5081243;28;20653;-78
2024/02/01 01:30:29;;;;;;;11.00;7.77;;;4.40;98.20;;;;;;5089867;28;20292;-78
2024/02/01 01:32:55;;;;;;;11.83;8.23;;;4.40;98.30;;;;;;5085682;28;20591;-77
2024/02/01 01:35:22;;;;;;;12.03;8.50;;;4.60;98.40;;;;;;5082544;28;20645;-78
2024/02/01 01:37:50;;;;;;;10.77;8.23;;;4.80;98.60;;;;;;5086562;28;20653;-80
2024/02/01 01:40:17;;;;;;;13.33;8.83;;;5.00;98.20;;;;;;5086546;28;20203;-80
2024/02/01 01:42:45;;;;;;;11.43;9.30;;;5.10;97.90;;;;;;5085175;28;20214;-80
2024/02/01 01:45:12;;;;;;;16.13;9.90;;;5.30;97.50;;;;;;5090507;28;20224;-80
2024/02/01 01:47:39;;;;;;;15.17;10.30;;;5.20;97.60;;;;;;5090673;28;20192;-81
2024/02/01 01:50:07;;;;;;;15.30;10.17;;;5.30;97.50;;;;;;5088377;28;21661;-80
2024/02/01 01:52:36;;;;;;;16.10;11.13;;;5.40;97.40;;;;;;5084101;28;20196;-81
2024/02/01 01:55:07;;;;;;;16.93;11.57;;;5.40;97.70;;;;;;5082184;28;20215;-79
2024/02/01 01:57:34;;;;;;;16.23;11.80;;;5.60;97.50;;;;;;5086009;28;20271;-80
2024/02/01 02:00:04;;;;;;;16.30;11.60;;;5.70;96.90;;;;;;5084834;28;20207;-81
2024/02/01 02:02:32;;;;;;;17.10;11.53;;;5.80;96.80;;;;;;5089155;28;20657;-81
2024/02/01 02:05:00;;;;;;;15.57;11.97;;;5.80;96.50;;;;;;5084319;28;20231;-80
2024/02/01 02:07:27;;;;;;;16.33;11.93;;;5.90;96.40;;;;;;5085299;28;20192;-80
2024/02/01 02:09:54;;;;;;;17.13;10.93;;;6.00;96.10;;;;;;5078951;28;20539;-80
2024/02/01 02:12:22;;;;;;;15.97;11.23;;;6.10;95.60;;;;;;5080249;28;20197;-80
2024/02/01 02:14:57;;;;;;;18.40;12.00;;;6.20;95.30;;;;;;5086044;28;20212;-80
2024/02/01 02:17:25;;;;;;;15.50;11.43;;;6.20;95.30;;;;;;5087588;28;20196;-80
2024/02/01 02:19:52;;;;;;;20.60;12.33;;;6.20;95.30;;;;;;5084890;28;20197;-81
2024/02/01 02:22:20;;;;;;;17.07;11.80;;;6.20;95.80;;;;;;5084690;28;20193;-80
2024/02/01 02:24:47;;;;;;;17.27;12.27;;;6.30;95.50;;;;;;5086262;28;20220;-80
2024/02/01 02:27:16;;;;;;;18.27;11.98;;;6.40;95.40;;;;;;5088293;28;20597;-80
2024/02/01 02:29:43;;;;;;;16.92;11.68;;;6.40;95.40;;;;;;5085561;28;20212;-80
2024/02/01 02:32:10;;;;;;;16.83;11.23;;;6.50;95.40;;;;;;5087461;28;20193;-81
2024/02/01 02:34:36;;;;;;;18.07;11.60;;;6.60;95.40;;;;;;5087455;28;21227;-81
2024/02/01 02:37:03;;;;;;;15.95;12.00;;;6.60;95.40;;;;;;5084591;28;20196;-80
2024/02/01 02:39:31;;;;;;;14.93;11.43;;;6.60;95.40;;;;;;5085806;28;20197;-79
2024/02/01 02:41:58;;;;;;;21.33;12.05;;;6.70;95.20;;;;;;5082217;28;20638;-80
2024/02/01 02:44:25;;;;;;;17.15;11.27;;;6.70;95.30;;;;;;5085863;28;20220;-81
2024/02/01 02:46:52;;;;;;;17.25;11.18;;;6.80;95.50;;;;;;5083171;28;20198;-80
2024/02/01 02:49:18;;;;;;;18.90;11.02;;;6.90;95.20;;;;;;5087315;28;20926;-80
2024/02/01 02:51:45;;;;;;;18.27;10.50;;;6.90;95.10;;;;;;5089055;28;20192;-80
2024/02/01 02:54:12;;;;;;;17.17;10.85;;;7.00;94.90;;;;;;5083038;28;20189;-80
2024/02/01 02:56:40;;;;;;;15.63;10.55;;;6.90;95.00;;;;;;5076623;28;20235;-80
2024/02/01 02:59:07;;;;;;;14.15;9.80;;;7.00;95.30;;;;;;5086327;28;20212;-80
2024/02/01 03:01:33;;;;;;;17.83;10.32;;;7.00;95.40;;;;;;5087443;28;20741;-81
2024/02/01 03:04:00;;;;;;;14.38;9.73;;;7.10;95.20;;;;;;5089051;28;20204;-80
2024/02/01 03:06:27;;;;;;;13.23;9.73;;;7.20;94.90;;;;;;5084251;28;20189;-80
2024/02/01 03:08:54;;;;;;;14.50;9.55;;;7.20;94.80;;;;;;5083597;28;20583;-81
2024/02/01 03:11:21;;;;;;;13.32;8.95;;;7.30;94.70;;;;;;5085490;28;20189;-80
2024/02/01 03:13:51;;;;;;;16.38;9.65;;;7.30;94.90;;;;;;5081271;28;20814;-80
2024/02/01 03:16:18;;;;;;;12.20;8.85;;;7.30;95.00;;;;;;5082374;28;20566;-80
2024/02/01 03:18:45;;;;;;;12.75;8.40;;;7.30;95.30;;;;;;5085475;28;20197;-80
2024/02/01 03:21:12;;;;;;;13.73;8.93;;;7.40;94.80;;;;;;5083464;28;20189;-80
2024/02/01 03:23:41;;;;;;;15.80;8.38;;;7.50;94.80;;;;;;5083957;28;20284;-80
2024/02/01 03:26:08;;;;;;;14.57;7.85;;;7.50;94.60;;;;;;5084320;28;20225;-80
2024/02/01 03:28:35;;;;;;;14.48;7.93;;;7.50;94.90;;;;;;5089204;28;20735;-81
2024/02/01 03:31:03;;;;;;;15.27;7.88;;;7.50;95.10;;;;;;5086203;28;20537;-80
2024/02/01 03:33:38;;;;;;;12.40;7.18;;;7.60;95.00;;;;;;5081577;28;20198;-82
2024/02/01 03:36:06;;;;;;;13.73;7.53;;;7.70;94.70;;;;;;5085664;28;20207;-80
2024/02/01 03:38:33;;;;;;;13.48;7.68;;;7.70;94.60;;;;;;5083385;28;20200;-81
2024/02/01 03:40:59;;;;;;;11.07;6.43;;;7.80;94.30;;;;;;5085361;28;20317;-80
2024/02/01 03:43:27;;;;;;;10.13;6.82;;;7.80;94.40;;;;;;5077971;28;20200;-82
2024/02/01 03:45:55;;;;;;;13.52;6.53;;;7.80;94.20;;;;;;5088574;28;20266;-81
2024/02/01 03:48:23;;;;;;;12.85;7.30;;;7.90;94.20;;;;;;5084987;28;20204;-80
2024/02/01 03:50:50;;;;;;;11.80;6.20;;;7.80;94.10;;;;;;5087044;28;20196;-80
2024/02/01 03:53:18;;;;;;;11.13;5.97;;;7.80;94.40;;;;;;5083329;28;20197;-80
2024/02/01 03:55:48;;;;;;;12.55;6.85;;;7.80;94.20;;;;;;5086580;28;20249;-80
2024/02/01 03:58:15;;;;;;;11.98;5.68;;;7.80;94.60;;;;;;5081763;28;20247;-80
2024/02/01 04:00:42;;;;;;;11.77;6.00;;;7.80;94.40;;;;;;5093403;28;20610;-80
2024/02/01 04:03:14;;;;;;;14.40;5.90;;;7.80;94.50;;;;;;5091585;28;20200;-80
2024/02/01 04:05:43;;;;;;;8.23;5.60;;;7.80;94.30;;;;;;5088639;28;20623;-80
2024/02/01 04:08:12;;;;;;;8.13;5.30;;;7.80;94.30;;;;;;5079720;28;20589;-80
2024/02/01 04:10:39;;;;;;;9.88;5.45;;;7.70;94.50;;;;;;5084144;28;20193;-80
2024/02/01 04:13:07;;;;;;;11.00;5.53;;;7.60;94.80;;;;;;5091828;28;20662;-80
2024/02/01 04:15:35;;;;;;;10.15;5.20;;;7.70;94.80;;;;;;5088683;28;20192;-80
2024/02/01 04:18:03;;;;;;;10.00;4.60;;;7.70;94.70;;;;;;5084502;28;20653;-80
2024/02/01 04:20:30;;;;;;;10.38;5.57;;;7.70;94.60;;;;;;5089287;28;20702;-80
2024/02/01 04:22:58;;;;;;;11.50;5.13;;;7.80;94.60;;;;;;5087330;28;20205;-80
2024/02/01 04:25:26;;;;;;;11.30;4.93;;;7.80;94.50;;;;;;5087736;28;20219;-80
2024/02/01 04:27:53;;;;;;;8.52;5.05;;;7.90;94.60;;;;;;5085810;28;20200;-80
2024/02/01 04:30:21;;;;;;;7.95;4.60;;;7.90;94.30;;;;;;5086155;28;20681;-80
2024/02/01 04:32:49;;;;;;;11.32;4.75;;;7.90;94.20;;;;;;5088239;28;20200;-80
2024/02/01 04:35:16;;;;;;;10.35;5.00;;;7.90;94.10;;;;;;5087241;28;20240;-80
2024/02/01 04:37:44;;;;;;;9.27;4.90;;;7.90;94.30;;;;;;5090937;28;20199;-80
2024/02/01 04:40:14;;;;;;;8.75;5.00;;;8.00;94.20;;;;;;5085483;28;20208;-80
2024/02/01 04:42:41;;;;;;;9.38;5.18;;;8.00;94.00;;;;;;5088109;28;20197;-81
2024/02/01 04:45:09;;;;;;;11.05;4.90;;;8.00;94.00;;;;;;5085910;28;20216;-80
2024/02/01 04:47:36;;;;;;;11.13;5.53;;;7.90;94.10;;;;;;5088408;28;20666;-80
2024/02/01 04:50:05;;;;;;;9.85;4.68;;;7.90;94.40;;;;;;5091362;28;20534;-81
2024/02/01 04:52:32;;;;;;;9.82;5.05;;;7.90;94.20;;;;;;5083029;28;20197;-80
2024/02/01 04:54:59;;;;;;;11.98;5.05;;;8.00;94.00;;;;;;5086789;28;20197;-80
2024/02/01 04:57:27;;;;;;;9.13;4.72;;;8.00;93.90;;;;;;5082789;28;20220;-80
2024/02/01 04:59:54;;;;;;;7.22;4.47;;;7.90;93.90;;;;;;5084788;28;20211;-80
2024/02/01 05:02:21;;;;;;;11.20;4.78;;;7.90;94.00;;;;;;5087593;28;20205;-80
2024/02/01 05:04:49;;;;;;;9.27;5.03;;;8.00;93.90;;;;;;5090077;28;20193;-81
2024/02/01 05:07:16;;;;;;;11.30;4.60;;;7.90;94.00;;;;;;5084208;28;20207;-80
2024/02/01 05:09:43;;;;;;;11.10;5.10;;;8.00;94.00;;;;;;5090321;28;20203;-80
2024/02/01 05:12:10;;;;;;;9.55;5.20;;;8.10;93.80;;;;;;5082632;28;20301;-81
2024/02/01 05:14:39;;;;;;;8.48;4.95;;;8.00;93.90;;;;;;5085576;28;20189;-81
2024/02/01 05:17:05;;;;;;;13.43;5.07;;;8.10;93.70;;;;;;5088039;28;20205;-80
2024/02/01 05:19:32;;;;;;;11.52;5.03;;;8.20;93.40;;;;;;5090749;28;20562;-80
2024/02/01 05:22:00;;;;;;;13.10;4.85;;;8.20;93.40;;;;;;5087621;28;20196;-80
2024/02/01 05:24:28;;;;;;;11.20;4.97;;;8.20;93.10;;;;;;5092207;28;20676;-83
2024/02/01 05:26:54;;;;;;;7.75;4.97;;;8.20;93.00;;;;;;5085766;28;20231;-81
2024/02/01 05:29:22;;;;;;;8.20;4.88;;;8.10;93.10;;;;;;5085565;28;20199;-80
2024/02/01 05:31:53;;;;;;;10.00;4.22;;;8.10;93.00;;;;;;5087017;28;20206;-80
2024/02/01 05:34:21;;;;;;;10.20;4.90;;;8.10;93.00;;;;;;5092202;28;20192;-80
2024/02/01 05:36:49;;;;;;;9.15;4.93;;;8.00;93.10;;;;;;5084358;28;20189;-80
2024/02/01 05:39:26;;;;;;;7.10;4.82;;;7.90;93.40;;;;;;5089221;28;20210;-81
2024/02/01 05:41:53;;;;;;;9.13;4.80;;;8.00;93.40;;;;;;5085801;28;20204;-81
2024/02/01 05:44:21;;;;;;;8.68;4.78;;;8.00;93.10;;;;;;5087844;28;20211;-82
2024/02/01 05:46:48;;;;;;;11.73;4.68;;;8.10;93.00;;;;;;5089051;28;20738;-83
2024/02/01 05:49:19;;;;;;;8.63;4.70;;;8.00;93.00;;;;;;5088227;28;20682;-82
2024/02/01 05:51:48;;;;;;;6.00;4.45;;;8.00;93.30;;;;;;5083603;28;20199;-80
2024/02/01 05:54:16;;;;;;;7.57;4.47;;;8.10;93.00;;;;;;5083933;28;20872;-80
2024/02/01 05:56:44;;;;;;;8.95;4.50;;;8.10;93.00;;;;;;5083769;28;20224;-81
2024/02/01 05:59:12;;;;;;;8.52;4.18;;;8.20;92.80;;;;;;5088217;28;20216;-80
2024/02/01 06:01:39;;;;;;;8.60;4.50;;;8.10;92.70;;;;;;5089720;28;20196;-80
2024/02/01 06:04:07;;;;;;;11.57;4.07;;;8.20;92.60;;;;;;5082914;28;20206;-81
2024/02/01 06:06:36;;;;;;;6.30;4.60;;;8.20;92.50;;;;;;5085712;28;20221;-80
2024/02/01 06:09:04;;;;;;;8.88;4.53;;;8.20;92.50;;;;;;5082189;28;20197;-81
2024/02/01 06:11:30;;;;;;;8.98;5.10;;;8.20;92.50;;;;;;5083805;28;20335;-81
2024/02/01 06:13:57;;;;;;;8.63;4.25;;;8.20;92.60;;;;;;5086703;28;20641;-81
2024/02/01 06:16:24;;;;;;;7.72;4.63;;;8.20;92.50;;;;;;5085291;28;20201;-82
2024/02/01 06:18:51;;;;;;;11.75;4.28;;;8.30;92.20;;;;;;5083972;28;20212;-81
2024/02/01 06:21:18;;;;;;;9.85;4.57;;;8.30;92.30;;;;;;5090981;28;20234;-81
2024/02/01 06:23:46;;;;;;;7.57;4.60;;;8.20;92.30;;;;;;5085226;28;20203;-82
2024/02/01 06:26:20;;;;;;;6.47;4.57;;;8.20;92.40;;;;;;5078991;28;20239;-82
2024/02/01 06:28:47;;;;;;;8.35;4.60;;;8.20;92.40;;;;;;5086870;28;20210;-82
2024/02/01 06:31:14;;;;;;;7.75;4.53;;;8.20;92.40;;;;;;5085308;28;20199;-82
2024/02/01 06:33:42;;;;;;;7.18;4.20;;;8.20;92.70;;;;;;5083527;28;20193;-82
2024/02/01 06:36:13;;;;;;;12.63;4.65;;;8.20;92.70;;;;;;5081285;28;20197;-82
2024/02/01 06:39:06;;;;;;;10.40;4.32;;;8.20;92.50;;;;;;5081498;28;20198;-81
2024/02/01 06:41:46;;;;;;;11.00;4.50;;;8.30;92.60;;;;;;5083364;28;20224;-82
2024/02/01 06:44:22;;;;;;;12.75;4.80;;;8.30;92.60;;;;;;5082963;28;20199;-81
2024/02/01 06:47:05;;;;;;;9.80;4.70;;;8.40;92.50;;;;;;5085680;28;20573;-82
2024/02/01 06:52:39;;;;;;;8.80;5.10;;;8.40;91.90;;;;;;5049405;28;20215;-81
2024/02/01 06:58:05;;;;;;;8.32;4.95;;;8.40;92.00;;;;;;5077676;28;20216;-81
2024/02/01 07:00:40;;;;;;;12.43;4.68;;;8.40;92.10;;;;;;5083549;28;20684;-81
2024/02/01 07:03:31;;;;;;;9.25;5.25;;;8.40;91.90;;;;;;5088684;28;20269;-81
2024/02/01 07:06:06;;;;;;;10.70;5.10;;;8.40;92.00;;;;;;5078955;28;20216;-81
2024/02/01 07:08:45;;;;;;;9.00;5.18;;;8.40;92.00;;;;;;5083653;28;20219;-81
2024/02/01 07:11:14;;;;;;;9.18;4.97;;;8.40;92.10;;;;;;5082270;28;20192;-80
2024/02/01 07:13:58;;;;;;;7.40;4.65;;;8.40;92.10;;;;;;5081509;28;20193;-81
2024/02/01 07:16:35;;;;;;;10.45;5.20;;;8.40;92.20;;;;;;5087069;28;20254;-81
2024/02/01 07:19:12;;;;;;;10.07;5.25;;;8.40;92.10;;;;;;5086923;28;20657;-81
2024/02/01 07:22:00;;;;;;;9.43;5.25;;;8.50;92.10;;;;;;5088611;28;20196;-80
2024/02/01 07:24:38;;;;;;;7.32;4.93;;;8.40;92.10;;;;;;5084388;28;20220;-81
2024/02/01 07:59:58;;;;;;;10.15;5.60;;;8.80;90.90;;;;;;5086445;28;20234;-83
2024/02/01 08:02:44;;;;;;;12.00;5.40;;;8.80;91.00;;;;;;5081939;28;20192;-83
2024/02/01 08:07:56;;;;;;;13.90;6.15;;;8.80;91.40;;;;;;5082686;28;20241;-84
2024/02/01 08:10:26;;;;;;;8.40;6.05;;;8.70;91.80;;;;;;5084566;28;20189;-84
2024/02/01 08:12:55;;;;;;;11.10;5.78;;;8.70;92.50;;;;;;5082264;28;20665;-84
2024/02/01 08:15:22;;;;;;;10.15;6.18;;;8.70;92.60;;;;;;5084720;28;20566;-84
2024/02/01 08:17:52;;;;;;;14.27;5.97;;;8.60;92.90;;;;;;5087137;28;20471;-83
2024/02/01 08:20:19;;;;;;;13.60;6.32;;;8.50;93.60;;;;;;5076988;28;20953;-83
2024/02/01 08:22:48;;;;;;;12.48;6.55;;;8.50;94.10;;;;;;5083935;28;20193;-83
2024/02/01 08:25:17;;;;;;;10.63;6.03;;;8.40;94.40;;;;;;5082827;28;20201;-83
2024/02/01 08:27:53;;;;;;;15.05;6.72;;;8.30;95.10;;;;;;5082750;28;20221;-83
2024/02/01 08:30:20;;;;;;;10.32;6.32;;;8.30;95.80;;;;;;5087845;28;20202;-83
2024/02/01 08:32:48;;;;;;;11.65;6.63;;;8.20;95.80;;;;;;5085218;28;20200;-83
2024/02/01 08:35:17;;;;;;;11.02;7.38;;;8.20;96.30;;;;;;5083660;28;20270;-83
2024/02/01 08:37:44;;;;;;;9.57;6.65;;;8.20;96.70;;;;;;5081990;28;20208;-83
2024/02/01 08:40:17;;;;;;;10.88;7.03;;;8.10;97.20;;;;;;5081976;28;20197;-83
2024/02/01 08:42:44;;;;;;;18.02;7.88;;;8.00;97.90;;;;;;5089749;28;20554;-83
2024/02/01 08:45:12;;;;;;;12.15;7.22;;;7.90;98.50;;;;;;5090805;28;20208;-83
2024/02/01 08:47:39;;;;;;;11.40;7.65;;;7.90;99.30;;;;;;5080971;28;20228;-83
2024/02/01 08:50:09;;;;;;;13.18;7.65;;;7.80;99.80;;;;;;5094030;28;20200;-84
2024/02/01 08:52:38;;;;;;;15.77;8.30;;;7.80;99.90;;;;;;5080437;28;20250;-83
2024/02/01 08:55:10;;;;;;;13.10;7.82;;;7.80;99.90;;;;;;5084886;28;20305;-83
2024/02/01 08:57:38;;;;;;;11.02;7.88;;;7.90;99.90;;;;;;5086769;28;20241;-83
2024/02/01 09:00:21;;;;;;;14.70;8.18;;;7.90;99.90;;;;;;5086137;28;20291;-83
2024/02/01 09:03:02;;;;;;;15.07;8.13;;;7.90;99.90;;;;;;5084023;28;20204;-84
2024/02/01 09:05:30;;;;;;;15.35;8.70;;;7.80;99.90;;;;;;5084352;28;20192;-81
2024/02/01 09:07:59;;;;;;;11.75;8.35;;;7.80;99.90;;;;;;5090334;28;20592;-81
2024/02/01 09:10:27;;;;;;;13.13;8.05;;;7.80;99.90;;;;;;5089527;28;20283;-81
2024/02/01 09:12:54;;;;;;;14.98;8.63;;;7.80;99.90;;;;;;5090916;28;20653;-81
2024/02/01 09:15:21;;;;;;;10.77;7.68;;;7.80;99.90;;;;;;5088386;28;20193;-81
2024/02/01 09:17:48;;;;;;;10.20;7.40;;;7.80;99.90;;;;;;5088174;28;20205;-81
2024/02/01 09:20:21;;;;;;;14.50;7.47;;;7.80;99.90;;;;;;5080002;28;20319;-81
2024/02/01 09:22:50;;;;;;;12.35;7.40;;;7.80;99.90;;;;;;5089851;28;20192;-82
2024/02/01 09:25:20;;;;;;;9.98;7.00;;;7.90;99.90;;;;;;5071727;28;20747;-81
2024/02/01 09:27:48;;;;;;;12.55;7.55;;;7.90;99.90;;;;;;5086511;28;20269;-81
2024/02/01 09:30:17;;;;;;;10.40;7.00;;;7.90;99.90;;;;;;5086491;28;20212;-81
2024/02/01 09:32:49;;;;;;;10.45;7.15;;;7.90;99.90;;;;;;5079757;28;20657;-81
2024/02/01 09:35:17;;;;;;;9.98;7.20;;;7.90;99.90;;;;;;5085906;28;20220;-81
2024/02/01 09:37:44;;;;;;;10.77;6.85;;;7.90;99.90;;;;;;5070340;28;20193;-81
2024/02/01 09:40:11;;;;;;;11.55;7.20;;;8.00;99.90;;;;;;5086555;28;20621;-80
2024/02/01 09:42:41;;;;;;;10.70;6.65;;;8.00;99.90;;;;;;5089854;28;20569;-81
2024/02/01 09:45:09;;;;;;;10.43;7.18;;;8.00;99.90;;;;;;5091229;28;20208;-80
2024/02/01 09:47:46;;;;;;;12.93;7.10;;;8.00;99.90;;;;;;5086112;28;20319;-81
2024/02/01 09:50:14;;;;;;;10.32;7.25;;;8.00;99.90;;;;;;5088829;28;20196;-80
2024/02/01 09:52:46;;;;;;;9.77;7.88;;;8.00;99.90;;;;;;5086464;28;20201;-81
2024/02/01 09:55:17;;;;;;;11.88;7.43;;;8.00;99.90;;;;;;5085123;28;20200;-80
2024/02/01 09:57:47;;;;;;;13.73;7.43;;;8.00;99.90;;;;;;5085963;28;20221;-81
2024/02/01 10:00:18;;;;;;;14.27;7.65;;;8.00;99.90;;;;;;5084584;28;20212;-81
2024/02/01 10:02:47;;;;;;;12.80;7.63;;;8.00;99.90;;;;;;5084591;28;20193;-81
2024/02/01 10:05:15;;;;;;;11.80;7.43;;;7.90;99.90;;;;;;5081197;28;20202;-81
2024/02/01 10:07:42;;;;;;;12.05;7.43;;;7.90;99.90;;;;;;5086158;28;20216;-81
2024/02/01 10:10:13;;;;;;;12.02;7.43;;;7.90;99.90;;;;;;5081205;28;20201;-81
2024/02/01 10:12:40;;;;;;;10.45;7.22;;;7.90;99.90;;;;;;5089228;28;20195;-81
2024/02/01 10:15:11;;;;;;;12.85;8.00;;;7.90;99.90;;;;;;5090603;28;20196;-81
2024/02/01 10:17:46;;;;;;;12.88;7.25;;;7.80;99.90;;;;;;5090100;28;20200;-81
2024/02/01 10:20:35;;;;;;;13.05;7.40;;;7.80;99.90;;;;;;5080392;28;20200;-81
2024/02/01 10:23:03;;;;;;;12.70;7.60;;;7.80;99.90;;;;;;5084744;28;20192;-81
2024/02/01 10:25:38;;;;;;;15.45;8.00;;;7.70;99.90;;;;;;5083466;28;20224;-81
2024/02/01 10:28:06;;;;;;;11.55;7.55;;;7.80;99.90;;;;;;5087384;28;20251;-81
2024/02/01 10:30:37;;;;;;;13.25;7.60;;;7.80;99.90;;;;;;5078331;28;20697;-81
2024/02/01 10:33:04;;;;;;;12.50;7.72;;;7.90;99.90;;;;;;5088626;28;20188;-81
2024/02/01 10:35:32;;;;;;;10.88;7.47;;;7.80;99.90;;;;;;5082431;28;20201;-81
2024/02/01 10:38:11;;;;;;;13.73;7.80;;;7.90;99.90;;;;;;5081822;28;20258;-81
2024/02/01 10:40:44;;;;;;;13.38;8.02;;;7.90;99.90;;;;;;5090812;28;20192;-81
2024/02/01 10:43:18;;;;;;;10.70;7.95;;;7.90;99.90;;;;;;5084362;28;20200;-81
2024/02/01 10:45:51;;;;;;;12.75;8.40;;;7.80;99.90;;;;;;5068061;28;20199;-81
2024/02/01 10:48:24;;;;;;;11.50;8.05;;;7.80;99.90;;;;;;5090463;28;20247;-81
2024/02/01 10:50:53;;;;;;;12.73;7.97;;;7.80;99.90;;;;;;5084081;28;20189;-81
2024/02/01 10:53:21;;;;;;;12.80;8.00;;;7.80;99.90;;;;;;5087391;28;20223;-81
2024/02/01 10:55:48;;;;;;;11.60;7.65;;;7.70;99.90;;;;;;5086643;28;20716;-81
2024/02/01 10:58:19;;;;;;;11.20;8.13;;;7.70;99.90;;;;;;5082528;28;20535;-81
2024/02/01 11:00:48;;;;;;;9.82;7.35;;;7.60;99.90;;;;;;5090904;28;20271;-82
2024/02/01 11:03:16;;;;;;;13.68;7.40;;;7.70;99.90;;;;;;5085832;28;20226;-82
2024/02/01 11:05:44;;;;;;;16.27;7.80;;;7.80;99.90;;;;;;5090161;28;20196;-81
2024/02/01 11:08:17;;;;;;;13.93;7.22;;;7.90;99.90;;;;;;5085760;28;20225;-83
2024/02/01 11:10:59;;;;;;;13.13;7.68;;;8.00;99.90;;;;;;5085351;28;20198;-81
2024/02/01 11:13:31;;;;;;;11.20;7.25;;;8.10;99.90;;;;;;5083368;28;20230;-82
2024/02/01 11:15:59;;;;;;;9.77;7.30;;;8.40;99.90;;;;;;5087479;28;20557;-82
2024/02/01 11:18:27;;;;;;;28.10;18.85;;;8.40;99.90;;;;;;5085215;28;20193;-82
2024/02/01 11:20:56;;;;;;;9.85;6.90;;;8.50;99.90;;;;;;5086848;28;20189;-81
2024/02/01 11:23:23;;;;;;;11.63;6.50;;;8.70;99.90;;;;;;5091158;28;20197;-81
2024/02/01 11:25:55;;;;;;;9.15;6.22;;;8.50;99.90;;;;;;5069003;28;20258;-81
2024/02/01 11:28:28;;;;;;;9.18;6.07;;;8.50;99.90;;;;;;5083378;28;20223;-81
2024/02/01 11:30:55;;;;;;;9.95;6.43;;;8.40;99.90;;;;;;5084402;28;21413;-81
2024/02/01 11:33:27;;;;;;;8.68;6.10;;;8.30;99.90;;;;;;5088293;28;20197;-81
2024/02/01 11:35:57;;;;;;;6.60;5.50;;;8.30;99.90;;;;;;5085997;28;20530;-80
2024/02/01 11:38:24;;;;;;;8.85;5.72;;;8.40;99.90;;;;;;5067314;28;20247;-82
2024/02/01 11:40:51;;;;;;;10.23;5.38;;;8.40;99.90;;;;;;5088487;28;20204;-80
2024/02/01 11:43:18;;;;;;;9.15;5.13;;;8.20;99.90;;;;;;5086158;28;20638;-81
2024/02/01 11:45:53;;;;;;;7.45;4.90;;;8.10;99.90;;;;;;5082689;28;20195;-81
2024/02/01 11:48:23;;;;;;;8.15;4.63;;;8.20;99.90;;;;;;5079865;28;20247;-82
2024/02/01 11:50:57;;;;;;;8.13;4.70;;;8.10;99.90;;;;;;5064164;28;20198;-81
2024/02/01 11:53:24;;;;;;;6.80;4.70;;;8.20;99.90;;;;;;5087580;28;20196;-82
2024/02/01 11:55:54;;;;;;;7.72;4.95;;;8.20;99.90;;;;;;5086688;28;20201;-81
2024/02/01 11:58:22;;;;;;;7.65;4.90;;;8.20;99.90;;;;;;5086618;28;20217;-81
2024/02/01 12:00:51;;;;;;;7.20;4.85;;;8.10;99.90;;;;;;5083805;28;20288;-80
2024/02/01 12:03:19;;;;;;;5.22;4.22;;;7.90;99.90;;;;;;5088677;28;20204;-80
2024/02/01 12:05:48;;;;;;;6.95;4.70;;;7.80;99.90;;;;;;5085352;28;20205;-80
2024/02/01 12:08:15;;;;;;;6.82;5.15;;;7.80;99.90;;;;;;5087189;28;20232;-80
2024/02/01 12:10:45;;;;;;;6.53;4.70;;;7.80;99.90;;;;;;5069938;28;20193;-80
2024/02/01 12:13:15;;;;;;;7.80;5.18;;;7.90;99.90;;;;;;5085595;28;20200;-80
2024/02/01 12:15:42;;;;;;;8.02;5.13;;;7.90;99.90;;;;;;5081868;28;20903;-80
2024/02/01 12:18:10;;;;;;;8.93;5.10;;;7.90;99.90;;;;;;5084571;28;20211;-80
2024/02/01 12:20:41;;;;;;;8.20;4.95;;;7.90;99.90;;;;;;5086828;28;20562;-79
2024/02/01 12:23:11;;;;;;;9.63;5.00;;;8.00;99.90;;;;;;5089743;28;20196;-80
2024/02/01 12:25:39;;;;;;;9.45;5.00;;;8.00;99.90;;;;;;5085271;28;20200;-81
2024/02/01 12:28:09;;;;;;;21.33;12.88;;;7.90;99.90;;;;;;5091422;28;20351;-81
2024/02/01 12:30:37;;;;;;;7.90;6.35;;;7.90;99.90;;;;;;5089758;28;20196;-80
2024/02/01 12:33:11;;;;;;;8.38;4.82;;;8.10;99.90;;;;;;5086743;28;20684;-81
2024/02/01 12:35:38;;;;;;;6.70;4.35;;;8.10;99.90;;;;;;5089458;28;20197;-81
2024/02/01 12:38:05;;;;;;;11.10;6.47;;;7.90;99.90;;;;;;5087241;28;20604;-82
2024/02/01 12:40:33;;;;;;;12.80;7.72;;;7.80;99.90;;;;;;5084336;28;20273;-82
2024/02/01 12:43:04;;;;;;;9.13;6.35;;;7.90;99.90;;;;;;5068548;28;20211;-83
2024/02/01 12:45:32;;;;;;;14.15;9.48;;;7.90;99.90;;;;;;5091405;28;20200;-83
2024/02/01 12:48:11;;;;;;;6.72;4.78;;;8.00;99.90;;;;;;5090660;28;20220;-82
2024/02/01 12:50:39;;;;;;;11.25;8.00;;;8.10;99.90;;;;;;5093794;28;20209;-83
2024/02/01 12:53:08;;;;;;;17.30;13.18;;;8.20;99.90;;;;;;5085332;28;20200;-82
2024/02/01 12:55:37;;;;;;;13.70;10.57;;;8.10;99.90;;;;;;5094696;28;20230;-82
2024/02/01 12:58:04;;;;;;;11.90;8.70;;;8.20;99.90;;;;;;5092092;28;20290;-81
2024/02/01 13:00:31;;;;;;;14.82;8.77;;;8.20;99.90;;;;;;5091492;28;20197;-82
2024/02/01 13:02:59;;;;;;;8.98;5.38;;;8.20;99.90;;;;;;5089559;28;20204;-82
2024/02/01 13:05:26;;;;;;;5.97;4.53;;;8.20;99.90;;;;;;5090774;28;20197;-82
2024/02/01 13:07:53;;;;;;;12.25;9.75;;;8.20;99.90;;;;;;5090418;28;20216;-83
2024/02/01 13:10:21;;;;;;;6.90;4.18;;;8.20;99.90;;;;;;5084543;28;20200;-82
2024/02/01 13:12:58;;;;;;;5.57;4.80;;;8.30;99.90;;;;;;5097006;28;20274;-82
2024/02/01 13:15:25;;;;;;;8.35;6.28;;;8.30;99.90;;;;;;5091094;28;20282;-82
2024/02/01 13:17:52;;;;;;;5.75;4.65;;;8.20;99.90;;;;;;5091252;28;20200;-83
2024/02/01 13:20:20;;;;;;;6.25;5.22;;;8.10;99.90;;;;;;5091118;28;20625;-82
2024/02/01 13:22:47;;;;;;;9.15;4.65;;;8.10;99.90;;;;;;5071633;28;20288;-82
2024/02/01 13:25:18;;;;;;;8.05;6.07;;;8.10;99.90;;;;;;5068318;28;20701;-82
2024/02/01 13:27:46;;;;;;;4.82;4.00;;;8.10;99.90;;;;;;5092226;28;20247;-82
2024/02/01 13:30:16;;;;;;;8.75;4.80;;;8.40;99.90;;;;;;5090108;28;20250;-82
2024/02/01 13:32:44;;;;;;;6.15;4.75;;;8.30;99.90;;;;;;5091770;28;20207;-83
2024/02/01 13:35:11;;;;;;;10.18;8.10;;;8.30;99.90;;;;;;5089920;28;20200;-83
2024/02/01 13:37:38;;;;;;;5.00;4.45;;;8.40;99.90;;;;;;5086495;28;20672;-82
2024/02/01 13:40:07;;;;;;;5.15;4.65;;;8.70;99.90;;;;;;5087019;28;20260;-82
2024/02/01 13:42:34;;;;;;;8.52;5.35;;;8.60;99.90;;;;;;5091088;28;20200;-82